createdAt,value
2023-05-04T00:02:00.620Z,4.8
2023-05-04T00:04:08.500Z,4.8
2023-05-04T00:06:17.646Z,4.8
2023-05-04T00:08:25.339Z,4.7
2023-05-04T00:10:33.696Z,4.7
2023-05-04T00:12:42.157Z,4.7
2023-05-04T00:14:49.965Z,4.7
2023-05-04T00:16:57.663Z,4.7
2023-05-04T00:19:05.424Z,4.7
2023-05-04T00:21:13.134Z,4.7
2023-05-04T00:23:22.180Z,4.6
2023-05-04T00:25:29.851Z,4.6
2023-05-04T00:27:37.625Z,4.6
2023-05-04T00:29:45.491Z,4.5
2023-05-04T00:31:53.389Z,4.4
2023-05-04T00:34:01.756Z,4.3
2023-05-04T00:36:10.355Z,4.2
2023-05-04T00:38:19.107Z,4.2
2023-05-04T00:40:28.231Z,4.2
2023-05-04T00:42:36.059Z,4.1
2023-05-04T00:44:44.648Z,4.1
2023-05-04T00:46:53.906Z,4.1
2023-05-04T00:49:02.016Z,4.2
2023-05-04T00:51:12.759Z,4.2
2023-05-04T00:53:20.612Z,4.2
2023-05-04T00:55:30.389Z,4.2
2023-05-04T00:57:38.664Z,4.2
2023-05-04T00:59:47.554Z,4.2
2023-05-04T01:01:55.305Z,4.2
2023-05-04T01:04:03.937Z,4.2
2023-05-04T01:06:23.464Z,4.2
2023-05-04T01:08:33.358Z,4.2
2023-05-04T01:10:48.042Z,4.2
2023-05-04T01:13:01.806Z,4.3
2023-05-04T01:15:11.294Z,4.3
2023-05-04T01:17:19.015Z,4.3
2023-05-04T01:19:27.963Z,4.3
2023-05-04T01:21:38.554Z,4.3
2023-05-04T01:23:46.323Z,4.3
2023-05-04T01:26:00.861Z,4.3
2023-05-04T01:28:13.333Z,4.3
2023-05-04T01:30:26.936Z,4.3
2023-05-04T01:32:36.363Z,4.2
2023-05-04T01:34:44.072Z,4.2
2023-05-04T01:36:53.714Z,4.2
2023-05-04T01:39:02.050Z,4.2
2023-05-04T01:41:09.797Z,4.2
2023-05-04T01:43:17.593Z,4.2
2023-05-04T01:45:25.511Z,4.2
2023-05-04T01:47:33.321Z,4.1
2023-05-04T01:49:41.083Z,4.1
2023-05-04T01:51:49.392Z,4.1
2023-05-04T01:53:58.692Z,4.1
2023-05-04T01:56:07.036Z,4
2023-05-04T01:58:14.852Z,4
2023-05-04T02:00:22.732Z,4
2023-05-04T02:02:30.889Z,4
2023-05-04T02:04:38.662Z,3.9
2023-05-04T02:06:46.796Z,3.9
2023-05-04T02:08:54.692Z,3.9
2023-05-04T02:11:03.762Z,3.8
2023-05-04T02:13:11.604Z,3.8
2023-05-04T02:15:19.652Z,3.8
2023-05-04T02:17:27.708Z,3.8
2023-05-04T02:19:35.456Z,3.8
2023-05-04T02:21:43.220Z,3.7
2023-05-04T02:23:50.921Z,3.8
2023-05-04T02:25:58.736Z,3.7
2023-05-04T02:28:08.195Z,3.7
2023-05-04T02:30:16.301Z,3.7
2023-05-04T02:32:24.179Z,3.6
2023-05-04T02:34:32.283Z,3.6
2023-05-04T02:36:40.007Z,3.6
2023-05-04T02:38:47.807Z,3.5
2023-05-04T02:43:02.558Z,3.4
2023-05-04T02:45:12.945Z,3.3
2023-05-04T02:47:20.921Z,3.3
2023-05-04T02:49:28.667Z,3.3
2023-05-04T02:51:36.358Z,3.3
2023-05-04T02:53:44.266Z,3.3
2023-05-04T02:55:52.024Z,3.3
2023-05-04T02:57:59.983Z,3.3
2023-05-04T03:00:09.711Z,3.3
2023-05-04T03:02:19.433Z,3.3
2023-05-04T03:04:27.332Z,3.3
2023-05-04T03:06:36.103Z,3.3
2023-05-04T03:08:43.794Z,3.3
2023-05-04T03:10:51.592Z,3.3
2023-05-04T03:13:03.670Z,3.3
2023-05-04T03:15:11.623Z,3.2
2023-05-04T03:17:20.918Z,3.2
2023-05-04T03:19:28.587Z,3.2
2023-05-04T03:21:36.251Z,3.2
2023-05-04T03:23:44.062Z,3.2
2023-05-04T03:25:51.958Z,3.2
2023-05-04T03:27:59.610Z,3.2
2023-05-04T03:30:08.871Z,3.1
2023-05-04T03:32:16.688Z,3.1
2023-05-04T03:34:26.024Z,3.1
2023-05-04T03:36:33.800Z,3.1
2023-05-04T03:38:42.132Z,3.1
2023-05-04T03:40:49.823Z,3.1
2023-05-04T03:42:57.550Z,3
2023-05-04T03:45:06.072Z,3
2023-05-04T03:47:13.769Z,3
2023-05-04T03:49:21.475Z,3
2023-05-04T03:51:30.615Z,3
2023-05-04T03:53:38.347Z,2.9
2023-05-04T03:55:46.058Z,2.9
2023-05-04T03:57:53.729Z,2.9
2023-05-04T04:00:01.481Z,2.9
2023-05-04T04:02:09.344Z,2.9
2023-05-04T04:04:17.118Z,2.9
2023-05-04T04:06:24.998Z,2.9
2023-05-04T04:08:34.222Z,2.9
2023-05-04T04:10:41.937Z,2.9
2023-05-04T04:12:50.007Z,3
2023-05-04T04:14:58.320Z,3
2023-05-04T04:17:06.252Z,3
2023-05-04T04:19:13.998Z,3
2023-05-04T04:21:21.802Z,3
2023-05-04T04:23:29.475Z,3
2023-05-04T04:25:38.676Z,3.1
2023-05-04T04:27:46.362Z,3.1
2023-05-04T04:29:54.199Z,3.2
2023-05-04T04:32:02.097Z,3.2
2023-05-04T04:34:09.816Z,3.3
2023-05-04T04:36:18.204Z,3.3
2023-05-04T04:38:26.242Z,3.4
2023-05-04T04:40:34.086Z,3.6
2023-05-04T04:42:43.247Z,3.9
2023-05-04T04:44:52.128Z,4.3
2023-05-04T04:47:00.220Z,4.5
2023-05-04T04:49:08.171Z,4.7
2023-05-04T04:51:15.940Z,4.8
2023-05-04T04:53:24.014Z,4.8
2023-05-04T04:55:32.474Z,4.8
2023-05-04T04:57:40.152Z,4.8
2023-05-04T04:59:49.205Z,4.9
2023-05-04T05:01:58.524Z,4.9
2023-05-04T05:04:06.307Z,4.8
2023-05-04T05:06:14.425Z,4.8
2023-05-04T05:08:22.163Z,4.8
2023-05-04T05:10:29.891Z,4.7
2023-05-04T05:12:37.664Z,4.8
2023-05-04T05:14:47.070Z,4.8
2023-05-04T05:16:56.300Z,4.8
2023-05-04T05:19:04.085Z,4.8
2023-05-04T05:21:12.178Z,4.8
2023-05-04T05:23:19.889Z,4.9
2023-05-04T05:25:27.878Z,4.9
2023-05-04T05:27:36.572Z,5
2023-05-04T05:29:44.685Z,5
2023-05-04T05:31:52.403Z,5
2023-05-04T05:34:01.967Z,5.1
2023-05-04T05:36:10.418Z,5.1
2023-05-04T05:38:18.944Z,5.2
2023-05-04T05:40:26.646Z,5.3
2023-05-04T05:42:34.674Z,5.4
2023-05-04T05:44:42.535Z,5.5
2023-05-04T05:46:50.536Z,5.6
2023-05-04T05:48:58.393Z,5.7
2023-05-04T05:51:07.503Z,5.8
2023-05-04T05:53:15.526Z,5.9
2023-05-04T05:55:23.258Z,6
2023-05-04T05:57:31.173Z,6.2
2023-05-04T05:59:39.037Z,6.3
2023-05-04T06:01:46.812Z,6.5
2023-05-04T06:03:54.709Z,6.7
2023-05-04T06:06:02.579Z,6.9
2023-05-04T06:08:13.183Z,7.1
2023-05-04T06:10:20.996Z,7.3
2023-05-04T06:12:28.724Z,7.4
2023-05-04T06:14:36.496Z,7.6
2023-05-04T06:16:44.250Z,7.8
2023-05-04T06:18:52.681Z,8
2023-05-04T06:21:01.269Z,8.2
2023-05-04T06:23:09.152Z,8.4
2023-05-04T06:25:18.404Z,8.7
2023-05-04T06:27:28.757Z,8.9
2023-05-04T06:29:38.225Z,9.1
2023-05-04T06:31:48.156Z,9.3
2023-05-04T06:33:57.368Z,9.5
2023-05-04T06:36:06.274Z,9.8
2023-05-04T06:38:14.199Z,10
2023-05-04T06:40:23.424Z,10.1
2023-05-04T06:42:32.083Z,10.3
2023-05-04T06:44:39.991Z,10.4
2023-05-04T06:46:48.161Z,10.6
2023-05-04T06:48:56.032Z,10.7
2023-05-04T06:51:03.893Z,10.9
2023-05-04T06:53:12.642Z,11.1
2023-05-04T06:55:20.547Z,11.3
2023-05-04T06:57:30.797Z,11.4
2023-05-04T06:59:38.550Z,11.5
2023-05-04T07:01:47.680Z,11.7
2023-05-04T07:03:58.556Z,11.8
2023-05-04T07:06:07.038Z,12
2023-05-04T07:08:15.366Z,12.1
2023-05-04T07:10:23.181Z,12.2
2023-05-04T07:12:33.081Z,12.4
2023-05-04T07:14:48.061Z,12.6
2023-05-04T07:16:56.800Z,12.7
2023-05-04T07:19:06.527Z,12.8
2023-05-04T07:23:26.586Z,13
2023-05-04T07:25:35.088Z,13.2
2023-05-04T07:27:45.078Z,13.3
2023-05-04T07:29:52.881Z,13.4
2023-05-04T07:32:00.609Z,13.5
2023-05-04T07:34:08.372Z,13.7
2023-05-04T07:36:16.717Z,13.9
2023-05-04T07:38:24.524Z,14
2023-05-04T07:40:32.346Z,14
2023-05-04T07:42:41.212Z,14
2023-05-04T07:44:50.274Z,14.1
2023-05-04T07:46:58.963Z,14.2
2023-05-04T07:49:07.043Z,14.3
2023-05-04T07:51:16.121Z,14.4
2023-05-04T07:53:25.414Z,14.2
2023-05-04T07:55:33.316Z,14.3
2023-05-04T07:57:41.201Z,14.5
2023-05-04T07:59:53.961Z,14.7
2023-05-04T08:02:01.784Z,14.8
2023-05-04T08:04:09.634Z,15
2023-05-04T08:06:17.347Z,15
2023-05-04T08:08:25.262Z,15.1
2023-05-04T08:10:36.485Z,15.2
2023-05-04T08:12:44.179Z,15.3
2023-05-04T08:14:53.244Z,15.3
2023-05-04T08:17:01.163Z,15.3
2023-05-04T08:19:09.814Z,15.1
2023-05-04T08:21:17.640Z,15.1
2023-05-04T08:23:25.526Z,15.2
2023-05-04T08:25:33.267Z,15.3
2023-05-04T08:27:41.041Z,15.4
2023-05-04T08:29:48.730Z,15.4
2023-05-04T08:31:58.582Z,15.5
2023-05-04T08:34:06.276Z,15.5
2023-05-04T08:36:14.228Z,15.5
2023-05-04T08:38:21.980Z,15.4
2023-05-04T08:40:29.793Z,15.4
2023-05-04T08:42:37.949Z,15.4
2023-05-04T08:44:45.789Z,15.5
2023-05-04T08:46:54.283Z,15.4
2023-05-04T08:49:03.791Z,15.4
2023-05-04T08:51:12.166Z,15.4
2023-05-04T08:53:21.478Z,15.6
2023-05-04T08:55:30.093Z,15.9
2023-05-04T08:57:38.373Z,16.1
2023-05-04T08:59:50.045Z,16.3
2023-05-04T09:01:59.823Z,16.2
2023-05-04T09:04:09.029Z,16.1
2023-05-04T09:06:16.794Z,15.9
2023-05-04T09:08:24.690Z,15.7
2023-05-04T09:10:32.619Z,15.7
2023-05-04T09:12:40.413Z,15.8
2023-05-04T09:14:48.575Z,15.9
2023-05-04T09:16:57.070Z,15.9
2023-05-04T09:19:05.505Z,15.9
2023-05-04T09:21:14.580Z,15.9
2023-05-04T09:23:22.965Z,15.9
2023-05-04T09:25:30.974Z,15.9
2023-05-04T09:27:40.287Z,15.8
2023-05-04T09:29:55.051Z,15.7
2023-05-04T09:32:05.623Z,15.8
2023-05-04T09:34:13.780Z,15.9
2023-05-04T09:36:24.937Z,15.8
2023-05-04T09:38:32.725Z,15.9
2023-05-04T09:40:42.889Z,15.9
2023-05-04T09:42:57.568Z,15.9
2023-05-04T09:45:06.808Z,16
2023-05-04T09:47:17.342Z,15.9
2023-05-04T09:49:32.557Z,15.7
2023-05-04T09:51:42.832Z,15.7
2023-05-04T09:53:51.953Z,15.7
2023-05-04T09:56:09.430Z,15.8
2023-05-04T09:58:18.441Z,15.8
2023-05-04T10:00:27.323Z,15.7
2023-05-04T10:02:35.559Z,15.9
2023-05-04T10:04:44.472Z,15.9
2023-05-04T10:06:54.741Z,16
2023-05-04T10:09:03.227Z,16.2
2023-05-04T10:11:11.127Z,16.2
2023-05-04T10:13:18.848Z,16.1
2023-05-04T10:15:27.411Z,16.2
2023-05-04T10:17:44.812Z,16.3
2023-05-04T10:20:05.720Z,16.4
2023-05-04T10:22:35.224Z,16.3
2023-05-04T10:25:22.511Z,16.3
2023-05-04T10:27:52.999Z,16.4
2023-05-04T10:30:01.858Z,16.4
2023-05-04T10:32:19.781Z,16.3
2023-05-04T10:34:30.976Z,16.3
2023-05-04T10:36:39.035Z,16.3
2023-05-04T10:38:48.164Z,16.2
2023-05-04T10:40:56.222Z,16.3
2023-05-04T10:43:04.714Z,16.3
2023-05-04T10:45:13.760Z,16.6
2023-05-04T10:47:32.761Z,16.7
2023-05-04T10:49:40.780Z,16.7
2023-05-04T10:51:49.515Z,16.5
2023-05-04T10:54:01.342Z,16.4
2023-05-04T10:56:09.079Z,16.6
2023-05-04T10:58:20.022Z,16.7
2023-05-04T11:00:37.798Z,16.7
2023-05-04T11:02:47.190Z,16.6
2023-05-04T11:05:04.358Z,16.5
2023-05-04T11:07:12.327Z,16.4
2023-05-04T11:09:21.589Z,16.4
2023-05-04T11:11:29.458Z,16.3
2023-05-04T11:13:44.061Z,16.3
2023-05-04T11:15:52.515Z,16.3
2023-05-04T11:18:00.229Z,16.3
2023-05-04T11:20:09.076Z,16.3
2023-05-04T11:22:17.018Z,16.3
2023-05-04T11:24:26.222Z,16.4
2023-05-04T11:26:34.754Z,16.4
2023-05-04T11:28:43.106Z,16.4
2023-05-04T11:30:52.438Z,16.4
2023-05-04T11:33:12.151Z,16.3
2023-05-04T11:35:22.647Z,16.4
2023-05-04T11:37:31.347Z,16.4
2023-05-04T11:39:40.499Z,16.5
2023-05-04T11:41:48.463Z,16.4
2023-05-04T11:43:56.551Z,16.6
2023-05-04T11:46:05.746Z,17
2023-05-04T11:48:15.955Z,17
2023-05-04T11:50:27.246Z,17.3
2023-05-04T11:52:36.291Z,17.4
2023-05-04T11:54:56.714Z,17.7
2023-05-04T11:57:04.828Z,17.9
2023-05-04T11:59:12.560Z,17.7
2023-05-04T12:01:21.179Z,17.5
2023-05-04T12:03:48.462Z,17.3
2023-05-04T12:06:02.218Z,17.2
2023-05-04T12:08:12.230Z,16.8
2023-05-04T12:10:28.190Z,16.7
2023-05-04T12:12:36.941Z,16.7
2023-05-04T12:14:48.950Z,16.9
2023-05-04T12:16:57.844Z,17.1
2023-05-04T12:19:07.387Z,17.3
2023-05-04T12:21:17.460Z,17.6
2023-05-04T12:23:25.419Z,17.6
2023-05-04T12:25:39.218Z,17.5
2023-05-04T12:27:54.287Z,17.3
2023-05-04T12:30:02.560Z,17.1
2023-05-04T12:32:10.557Z,16.9
2023-05-04T12:34:18.395Z,16.7
2023-05-04T12:36:26.784Z,16.6
2023-05-04T12:38:34.773Z,16.5
2023-05-04T12:40:45.936Z,16.4
2023-05-04T12:42:53.912Z,16.3
2023-05-04T12:45:01.669Z,16.3
2023-05-04T12:47:09.496Z,16.3
2023-05-04T12:49:17.251Z,16.4
2023-05-04T12:51:25.052Z,16.5
2023-05-04T12:53:33.088Z,16.6
2023-05-04T12:55:41.170Z,16.6
2023-05-04T12:57:51.352Z,16.5
2023-05-04T13:00:00.606Z,16.5
2023-05-04T13:02:08.448Z,16.5
2023-05-04T13:04:16.190Z,16.4
2023-05-04T13:06:23.887Z,16.3
2023-05-04T13:08:32.498Z,16.1
2023-05-04T13:10:40.254Z,15.8
2023-05-04T13:12:48.696Z,15.6
2023-05-04T13:14:58.123Z,15.6
2023-05-04T13:17:05.864Z,15.5
2023-05-04T13:19:13.789Z,15.5
2023-05-04T13:21:21.799Z,15.4
2023-05-04T13:23:29.568Z,15.3
2023-05-04T13:25:37.273Z,15.1
2023-05-04T13:27:45.058Z,14.9
2023-05-04T13:29:53.355Z,14.9
2023-05-04T13:32:02.611Z,14.7
2023-05-04T13:34:10.458Z,14.6
2023-05-04T13:36:18.386Z,14.5
2023-05-04T13:38:26.821Z,14.5
2023-05-04T13:40:34.585Z,14.5
2023-05-04T13:42:42.612Z,14.5
2023-05-04T13:44:50.414Z,14.5
2023-05-04T13:46:58.160Z,14.7
2023-05-04T13:49:07.338Z,14.8
2023-05-04T13:51:15.029Z,14.8
2023-05-04T13:53:22.759Z,14.8
2023-05-04T13:55:30.625Z,14.8
2023-05-04T13:57:38.578Z,14.9
2023-05-04T13:59:54.834Z,14.8
2023-05-04T14:02:12.488Z,14.7
2023-05-04T14:04:23.210Z,14.7
2023-05-04T14:06:30.909Z,14.9
2023-05-04T14:08:38.599Z,15
2023-05-04T14:10:46.286Z,15.3
2023-05-04T14:12:54.134Z,15.4
2023-05-04T14:15:02.685Z,15.5
2023-05-04T14:17:10.452Z,15.5
2023-05-04T14:19:18.253Z,15.7
2023-05-04T14:21:28.909Z,15.8
2023-05-04T14:23:36.664Z,15.9
2023-05-04T14:25:51.230Z,15.8
2023-05-04T14:27:59.036Z,15.7
2023-05-04T14:30:09.396Z,15.6
2023-05-04T14:32:19.345Z,15.3
2023-05-04T14:34:27.633Z,15.1
2023-05-04T14:36:36.703Z,14.9
2023-05-04T14:38:44.517Z,14.7
2023-05-04T14:40:52.798Z,14.7
2023-05-04T14:43:00.978Z,14.7
2023-05-04T14:45:10.288Z,14.6
2023-05-04T14:47:19.054Z,14.4
2023-05-04T14:49:36.289Z,14.5
2023-05-04T14:51:48.877Z,14.3
2023-05-04T14:53:58.543Z,14.2
2023-05-04T14:56:06.756Z,13.9
2023-05-04T14:58:15.344Z,13.8
2023-05-04T15:00:23.509Z,13.8
2023-05-04T15:02:31.355Z,13.6
2023-05-04T15:04:39.595Z,13.6
2023-05-04T15:06:49.826Z,13.5
2023-05-04T15:08:57.547Z,13.5
2023-05-04T15:11:05.286Z,13.5
2023-05-04T15:13:15.451Z,13.4
2023-05-04T15:15:23.433Z,13.5
2023-05-04T15:17:31.796Z,13.5
2023-05-04T15:19:40.239Z,13.5
2023-05-04T15:21:49.920Z,13.5
2023-05-04T15:23:57.667Z,13.5
2023-05-04T15:26:05.503Z,13.4
2023-05-04T15:28:13.257Z,13.4
2023-05-04T15:30:21.511Z,13.4
2023-05-04T15:32:29.232Z,13.3
2023-05-04T15:34:38.148Z,13.4
2023-05-04T15:36:45.937Z,13.5
2023-05-04T15:38:55.139Z,13.4
2023-05-04T15:41:03.264Z,13.4
2023-05-04T15:43:11.109Z,13.4
2023-05-04T15:45:19.118Z,13.4
2023-05-04T15:47:27.008Z,13.3
2023-05-04T15:49:34.869Z,13.2
2023-05-04T15:51:42.998Z,13.1
2023-05-04T15:53:51.505Z,13
2023-05-04T15:56:00.947Z,13
2023-05-04T15:58:08.825Z,13
2023-05-04T16:00:17.593Z,13
2023-05-04T16:02:25.666Z,13
2023-05-04T16:04:33.361Z,12.9
2023-05-04T16:06:41.427Z,12.9
2023-05-04T16:08:49.085Z,12.8
2023-05-04T16:10:57.537Z,12.8
2023-05-04T16:13:07.014Z,12.8
2023-05-04T16:15:15.831Z,12.7
2023-05-04T16:17:23.671Z,12.7
2023-05-04T16:19:31.470Z,12.6
2023-05-04T16:21:39.164Z,12.6
2023-05-04T16:23:46.950Z,12.6
2023-05-04T16:25:54.822Z,12.6
2023-05-04T16:28:02.508Z,12.6
2023-05-04T16:30:13.044Z,12.6
2023-05-04T16:34:36.263Z,12.5
2023-05-04T16:36:44.575Z,12.5
2023-05-04T16:38:55.261Z,12.4
2023-05-04T16:41:03.304Z,12.3
2023-05-04T16:43:11.217Z,12.3
2023-05-04T16:45:20.573Z,12.2
2023-05-04T16:47:28.291Z,12.3
2023-05-04T16:49:36.127Z,12.3
2023-05-04T16:51:43.982Z,12.3
2023-05-04T16:53:51.709Z,12.4
2023-05-04T16:55:59.454Z,12.3
2023-05-04T16:58:07.554Z,12.3
2023-05-04T17:00:16.193Z,12.3
2023-05-04T17:02:25.814Z,12.2
2023-05-04T17:04:33.574Z,12.1
2023-05-04T17:06:41.254Z,12.1
2023-05-04T17:08:48.980Z,12.1
2023-05-04T17:10:59.287Z,12
2023-05-04T17:13:07.427Z,12
2023-05-04T17:15:15.382Z,12
2023-05-04T17:17:23.112Z,12.1
2023-05-04T17:19:32.424Z,12
2023-05-04T17:21:40.246Z,12
2023-05-04T17:23:47.950Z,12
2023-05-04T17:25:56.770Z,11.9
2023-05-04T17:28:05.486Z,11.9
2023-05-04T17:30:14.350Z,11.8
2023-05-04T17:32:22.134Z,11.8
2023-05-04T17:34:29.829Z,11.8
2023-05-04T17:36:38.855Z,11.8
2023-05-04T17:38:50.018Z,11.8
2023-05-04T17:40:57.728Z,11.8
2023-05-04T17:43:05.479Z,11.7
2023-05-04T17:45:13.436Z,11.7
2023-05-04T17:47:21.150Z,11.6
2023-05-04T17:49:28.882Z,11.6
2023-05-04T17:51:39.348Z,11.6
2023-05-04T17:53:47.055Z,11.5
2023-05-04T17:55:54.735Z,11.5
2023-05-04T17:58:02.437Z,11.5
2023-05-04T18:00:11.376Z,11.5
2023-05-04T18:02:19.241Z,11.5
2023-05-04T18:04:27.258Z,11.5
2023-05-04T18:06:35.102Z,11.4
2023-05-04T18:08:44.139Z,11.4
2023-05-04T18:10:51.903Z,11.4
2023-05-04T18:13:00.436Z,11.4
2023-05-04T18:15:09.632Z,11.4
2023-05-04T18:17:17.414Z,11.3
2023-05-04T18:19:26.555Z,11.3
2023-05-04T18:21:36.436Z,11.2
2023-05-04T18:23:45.525Z,11.2
2023-05-04T18:25:53.306Z,11.2
2023-05-04T18:28:01.461Z,11.2
2023-05-04T18:30:10.527Z,11.2
2023-05-04T18:32:18.562Z,11.2
2023-05-04T18:34:26.309Z,11.1
2023-05-04T18:36:34.057Z,11.1
2023-05-04T18:38:41.788Z,11.1
2023-05-04T18:40:54.668Z,11.1
2023-05-04T18:43:02.355Z,11
2023-05-04T18:45:11.363Z,11
2023-05-04T18:47:19.500Z,10.9
2023-05-04T18:49:27.280Z,10.9
2023-05-04T18:51:35.096Z,10.9
2023-05-04T18:53:42.807Z,10.8
2023-05-04T18:56:02.628Z,10.8
2023-05-04T18:58:10.489Z,10.8
2023-05-04T19:00:18.410Z,10.7
2023-05-04T19:02:26.840Z,10.7
2023-05-04T19:04:34.577Z,10.6
2023-05-04T19:06:42.458Z,10.6
2023-05-04T19:08:50.309Z,10.6
2023-05-04T19:10:59.280Z,10.6
2023-05-04T19:13:08.438Z,10.6
2023-05-04T19:15:16.781Z,10.5
2023-05-04T19:17:24.676Z,10.5
2023-05-04T19:19:32.629Z,10.5
2023-05-04T19:21:42.629Z,10.5
2023-05-04T19:23:50.413Z,10.5
2023-05-04T19:26:07.550Z,10.5
2023-05-04T19:28:16.810Z,10.5
2023-05-04T19:30:24.785Z,10.5
2023-05-04T19:32:33.325Z,10.4
2023-05-04T19:34:42.796Z,10.4
2023-05-04T19:36:50.606Z,10.4
2023-05-04T19:38:58.294Z,10.4
2023-05-04T19:41:06.180Z,10.4
2023-05-04T19:43:14.046Z,10.4
2023-05-04T19:45:23.424Z,10.4
2023-05-04T19:47:31.824Z,10.4
2023-05-04T19:49:39.582Z,10.4
2023-05-04T19:51:47.258Z,10.4
2023-05-04T19:53:55.403Z,10.4
2023-05-04T19:56:03.262Z,10.5
2023-05-04T19:58:11.122Z,10.5
2023-05-04T20:00:19.577Z,10.5
2023-05-04T20:02:28.977Z,10.5
2023-05-04T20:04:36.793Z,10.5
2023-05-04T20:06:44.548Z,10.5
2023-05-04T20:08:53.706Z,10.5
2023-05-04T20:11:01.590Z,10.5
2023-05-04T20:13:09.322Z,10.5
2023-05-04T20:15:17.257Z,10.5
2023-05-04T20:17:25.024Z,10.5
2023-05-04T20:19:34.104Z,10.5
2023-05-04T20:21:41.957Z,10.6
2023-05-04T20:23:49.629Z,10.6
2023-05-04T20:25:57.302Z,10.6
2023-05-04T20:28:05.284Z,10.6
2023-05-04T20:30:13.332Z,10.6
2023-05-04T20:32:21.187Z,10.6
2023-05-04T20:34:29.292Z,10.6
2023-05-04T20:36:38.494Z,10.6
2023-05-04T20:38:46.162Z,10.6
2023-05-04T20:40:54.130Z,10.6
2023-05-04T20:43:02.917Z,10.6
2023-05-04T20:45:11.312Z,10.6
2023-05-04T20:47:19.202Z,10.6
2023-05-04T20:49:27.113Z,10.7
2023-05-04T20:51:35.046Z,10.6
2023-05-04T20:53:44.187Z,10.6
2023-05-04T20:55:51.880Z,10.7
2023-05-04T20:57:59.668Z,10.6
2023-05-04T21:00:09.141Z,10.6
2023-05-04T21:02:17.181Z,10.6
2023-05-04T21:04:25.557Z,10.6
2023-05-04T21:06:33.255Z,10.6
2023-05-04T21:08:40.984Z,10.6
2023-05-04T21:10:50.133Z,10.6
2023-05-04T21:12:58.182Z,10.6
2023-05-04T21:15:07.130Z,10.6
2023-05-04T21:17:14.832Z,10.6
2023-05-04T21:19:22.573Z,10.6
2023-05-04T21:21:31.212Z,10.6
2023-05-04T21:23:38.921Z,10.6
2023-05-04T21:25:46.747Z,10.6
2023-05-04T21:27:57.826Z,10.5
2023-05-04T21:30:07.935Z,10.6
2023-05-04T21:32:15.850Z,10.5
2023-05-04T21:34:23.518Z,10.6
2023-05-04T21:36:31.486Z,10.5
2023-05-04T21:38:39.151Z,10.5
2023-05-04T21:40:46.860Z,10.5
2023-05-04T21:42:56.077Z,10.5
2023-05-04T21:45:04.125Z,10.5
2023-05-04T21:47:11.908Z,10.5
2023-05-04T21:49:19.642Z,10.5
2023-05-04T21:51:28.291Z,10.5
2023-05-04T21:53:36.310Z,10.4
2023-05-04T21:55:44.035Z,10.4
2023-05-04T21:57:51.738Z,10.4
2023-05-04T22:00:01.251Z,10.4
2023-05-04T22:02:09.702Z,10.4
2023-05-04T22:04:17.482Z,10.4
2023-05-04T22:06:25.775Z,10.4
2023-05-04T22:08:36.876Z,10.3
2023-05-04T22:10:45.058Z,10.3
2023-05-04T22:12:52.968Z,10.3
2023-05-04T22:15:02.935Z,10.3
2023-05-04T22:17:11.539Z,10.3
2023-05-04T22:19:19.789Z,10.3
2023-05-04T22:22:28.227Z,10.2
2023-05-04T22:23:54.505Z,10.2
2023-05-04T22:26:02.232Z,10.1
2023-05-04T22:28:10.104Z,10.1
2023-05-04T22:30:22.342Z,10.1
2023-05-04T22:32:30.151Z,10.1
2023-05-04T22:34:39.778Z,10.1
2023-05-04T22:36:53.189Z,10.1
2023-05-04T22:39:09.325Z,10.1
2023-05-04T22:41:17.052Z,10
2023-05-04T22:43:24.917Z,10
2023-05-04T22:45:36.079Z,10
2023-05-04T22:47:43.872Z,10
2023-05-04T22:49:55.866Z,10
2023-05-04T22:52:03.888Z,10
2023-05-04T22:54:12.152Z,9.9
2023-05-04T22:56:20.780Z,9.9
2023-05-04T22:58:28.991Z,9.9
2023-05-04T23:00:38.132Z,9.9
2023-05-04T23:02:47.363Z,9.9
2023-05-04T23:04:55.233Z,9.9
2023-05-04T23:07:03.062Z,9.9
2023-05-04T23:09:11.485Z,9.9
2023-05-04T23:11:21.017Z,9.9
2023-05-04T23:13:28.797Z,9.9
2023-05-04T23:15:40.483Z,9.9
2023-05-04T23:17:48.391Z,9.8
2023-05-04T23:19:56.361Z,9.8
2023-05-04T23:22:04.151Z,9.8
2023-05-04T23:24:12.159Z,9.8
2023-05-04T23:26:19.888Z,9.8
2023-05-04T23:28:27.583Z,9.8
2023-05-04T23:44:01.796Z,9.7
2023-05-04T23:46:09.682Z,9.7
2023-05-04T23:48:17.472Z,9.7
2023-05-04T23:50:25.210Z,9.7
2023-05-04T23:52:33.671Z,9.7
2023-05-04T23:54:41.408Z,9.7
2023-05-04T23:56:49.199Z,9.7
2023-05-04T23:58:56.992Z,9.7
